Time;durP1;ratioP1;P1;durP2;ratioP2;P2;SDS_P1;SDS_P2;PMS_P1;PMS_P2;Temp;Humidity;BMP_temperature;BMP_pressure;BME280_temperature;BME280_humidity;BME280_pressure;Samples;Min_cycle;Max_cycle;Signal;HPM_P1;HPM_P2
2022/08/05 00:02:21;;;;;;;13.57;8.60;;;;;;;17.78;100.00;101341.63;5066793;28;20043;-89
2022/08/05 00:04:46;;;;;;;18.83;9.10;;;;;;;17.76;100.00;101349.25;5066536;28;20143;-89
2022/08/05 00:07:12;;;;;;;15.48;8.77;;;;;;;17.80;100.00;101345.78;5067028;28;20036;-89
2022/08/05 00:09:37;;;;;;;12.60;8.90;;;;;;;17.88;100.00;101350.00;5048551;28;20368;-89
2022/08/05 00:12:03;;;;;;;14.07;9.13;;;;;;;17.94;100.00;101354.53;5065941;28;20078;-88
2022/08/05 00:14:28;;;;;;;14.50;9.17;;;;;;;17.91;100.00;101352.25;5066173;28;20032;-89
2022/08/05 00:16:53;;;;;;;13.60;9.47;;;;;;;17.89;100.00;101355.22;5064787;28;20036;-90
2022/08/05 00:19:21;;;;;;;16.07;9.80;;;;;;;17.91;100.00;101357.75;5066639;28;20056;-90
2022/08/05 00:21:47;;;;;;;14.63;9.23;;;;;;;17.92;100.00;101348.44;5066804;28;20036;-90
2022/08/05 00:24:12;;;;;;;15.30;9.80;;;;;;;17.92;100.00;101353.94;5066178;28;20382;-89
2022/08/05 00:26:37;;;;;;;14.67;9.57;;;;;;;17.92;100.00;101350.38;5065459;28;20044;-92
2022/08/05 00:29:03;;;;;;;13.87;10.57;;;;;;;17.91;100.00;101354.16;5064809;28;20483;-89
2022/08/05 00:31:28;;;;;;;13.37;9.63;;;;;;;18.00;100.00;101353.50;5065026;28;20047;-91
2022/08/05 00:33:53;;;;;;;11.80;9.27;;;;;;;18.05;100.00;101350.03;5066053;28;20540;-91
2022/08/05 00:36:21;;;;;;;16.10;9.90;;;;;;;18.08;100.00;101348.72;5065247;28;20040;-93
2022/08/05 00:38:46;;;;;;;16.40;9.43;;;;;;;18.10;100.00;101338.31;5064719;28;20033;-90
2022/08/05 00:41:12;;;;;;;14.97;10.50;;;;;;;18.15;100.00;101346.63;5064821;28;20450;-92
2022/08/05 00:43:37;;;;;;;15.10;10.17;;;;;;;18.10;100.00;101346.53;5066237;28;20077;-91
2022/08/05 00:46:02;;;;;;;13.77;9.73;;;;;;;18.12;100.00;101353.44;5066247;28;20079;-91
2022/08/05 00:48:37;;;;;;;14.33;10.40;;;;;;;18.12;100.00;101356.19;5066432;28;20215;-91
2022/08/05 00:51:02;;;;;;;14.80;10.43;;;;;;;18.10;100.00;101363.84;5066754;28;20052;-90
2022/08/05 00:53:28;;;;;;;14.70;10.83;;;;;;;18.03;100.00;101347.56;5066647;28;20109;-92
2022/08/05 00:55:53;;;;;;;14.87;10.60;;;;;;;18.14;100.00;101347.69;5065192;28;20036;-91
2022/08/05 00:58:18;;;;;;;14.83;10.50;;;;;;;18.07;100.00;101350.59;5065100;28;20039;-92
2022/08/05 01:00:45;;;;;;;14.13;10.97;;;;;;;18.02;100.00;101356.84;5064606;28;20549;-92
2022/08/05 01:03:44;;;;;;;16.20;10.53;;;;;;;18.03;100.00;101361.25;5064243;28;20082;-92
2022/08/05 01:06:10;;;;;;;14.17;9.63;;;;;;;18.08;100.00;101359.69;5065770;28;20045;-90
2022/08/05 01:09:09;;;;;;;13.67;9.10;;;;;;;18.04;100.00;101354.69;5065390;28;20036;-93
2022/08/05 01:11:38;;;;;;;17.43;9.83;;;;;;;18.10;100.00;101360.25;5066291;28;20039;-90
2022/08/05 01:14:16;;;;;;;16.23;9.70;;;;;;;18.03;100.00;101369.50;5064573;28;20047;-92
2022/08/05 01:17:20;;;;;;;14.47;10.33;;;;;;;18.04;100.00;101382.09;5065529;28;20333;-92
2022/08/05 01:20:00;;;;;;;14.43;9.00;;;;;;;17.98;100.00;101390.50;5066353;28;20130;-93
2022/08/05 01:22:54;;;;;;;14.13;8.50;;;;;;;18.01;100.00;101388.09;5064730;28;20044;-93
2022/08/05 01:25:22;;;;;;;13.93;8.37;;;;;;;18.09;100.00;101383.25;5065461;28;20028;-91
2022/08/05 01:28:12;;;;;;;14.07;8.17;;;;;;;18.15;100.00;101376.78;5065970;28;20035;-92
2022/08/05 01:30:45;;;;;;;12.97;7.70;;;;;;;18.09;100.00;101388.75;5064847;28;20083;-89
2022/08/05 01:33:13;;;;;;;16.73;7.73;;;;;;;18.03;100.00;101385.09;5080789;28;20147;-87
2022/08/05 01:35:41;;;;;;;11.30;6.67;;;;;;;18.00;99.96;101402.03;5064766;28;20233;-87
2022/08/05 01:38:08;;;;;;;13.37;7.90;;;;;;;18.01;100.00;101406.47;5065570;28;20551;-89
2022/08/05 01:40:34;;;;;;;15.57;6.90;;;;;;;17.97;100.00;101413.50;5069648;28;20040;-88
2022/08/05 01:43:02;;;;;;;15.17;7.23;;;;;;;17.95;99.43;101422.00;5065930;28;20043;-88
2022/08/05 01:45:29;;;;;;;11.40;6.10;;;;;;;17.92;99.73;101403.28;5065135;28;20040;-84
2022/08/05 01:47:58;;;;;;;12.73;7.00;;;;;;;17.91;99.77;101419.94;5065617;28;20032;-88
2022/08/05 01:50:27;;;;;;;13.03;6.93;;;;;;;17.94;99.36;101424.97;5065276;28;20787;-88
2022/08/05 01:52:56;;;;;;;11.27;6.97;;;;;;;17.91;99.10;101422.69;5064884;28;20118;-88
2022/08/05 01:55:26;;;;;;;10.90;6.43;;;;;;;18.00;99.68;101427.53;5064958;28;20148;-87
2022/08/05 01:57:53;;;;;;;12.33;6.57;;;;;;;18.18;100.00;101412.78;5065616;28;20120;-87
2022/08/05 02:00:19;;;;;;;10.63;7.17;;;;;;;18.20;100.00;101398.81;5064980;28;20417;-87
2022/08/05 02:02:53;;;;;;;15.20;7.57;;;;;;;18.19;100.00;101395.22;5065439;28;20055;-87
2022/08/05 02:05:19;;;;;;;;;;;;;;;18.25;99.15;101393.41;5064091;28;20086;-86
2022/08/05 02:07:45;;;;;;;14.47;7.20;;;;;;;18.17;99.95;101391.91;5064118;28;19924;-85
2022/08/05 02:10:11;;;;;;;12.77;7.00;;;;;;;18.16;100.00;101392.16;5064745;28;20040;-87
2022/08/05 02:12:40;;;;;;;11.50;6.57;;;;;;;18.21;99.67;101376.63;5063789;28;20063;-87
2022/08/05 02:15:11;;;;;;;14.00;7.03;;;;;;;18.07;99.32;101360.75;5063136;28;20044;-83
2022/08/05 02:18:29;;;;;;;11.83;7.03;;;;;;;18.05;99.01;101366.50;5062451;28;20050;-85
2022/08/05 02:20:59;;;;;;;15.90;7.30;;;;;;;17.94;98.76;101376.47;5034670;28;20055;-86
2022/08/05 02:23:29;;;;;;;12.70;7.40;;;;;;;17.89;100.00;101379.91;5064307;28;20376;-83
2022/08/05 02:25:57;;;;;;;15.90;7.57;;;;;;;17.87;99.83;101382.06;5063352;28;20168;-87
2022/08/05 02:28:25;;;;;;;13.03;7.03;;;;;;;17.86;99.80;101355.72;5065373;28;20051;-87
2022/08/05 02:30:59;;;;;;;11.87;6.60;;;;;;;17.85;99.54;101372.44;5063583;28;20037;-88
2022/08/05 02:33:25;;;;;;;10.20;6.22;;;;;;;17.82;98.86;101372.94;5064226;28;20371;-87
2022/08/05 02:35:55;;;;;;;12.73;6.53;;;;;;;17.76;99.13;101363.78;5064523;28;20032;-83
2022/08/05 02:38:21;;;;;;;13.93;6.63;;;;;;;17.76;99.71;101390.34;5064601;28;20041;-87
2022/08/05 02:40:47;;;;;;;11.67;6.50;;;;;;;17.83;99.70;101386.38;5064463;28;20123;-88
2022/08/05 02:43:14;;;;;;;14.07;6.10;;;;;;;17.86;98.69;101394.09;5064490;28;20480;-87
2022/08/05 02:45:42;;;;;;;11.00;6.13;;;;;;;17.86;98.95;101393.28;5063451;28;20680;-87
2022/08/05 02:48:09;;;;;;;11.13;6.40;;;;;;;17.78;98.86;101405.47;5065238;28;20067;-91
2022/08/05 02:50:35;;;;;;;13.67;6.20;;;;;;;17.80;98.57;101394.25;5064033;28;20028;-89
2022/08/05 02:53:02;;;;;;;11.83;6.23;;;;;;;17.81;98.87;101412.38;5062910;28;20706;-86
2022/08/05 02:55:30;;;;;;;13.90;6.37;;;;;;;17.79;99.55;101409.03;5063854;28;20037;-88
2022/08/05 02:57:57;;;;;;;12.03;6.00;;;;;;;17.80;98.92;101407.97;5063382;28;20036;-84
2022/08/05 03:00:23;;;;;;;12.50;5.83;;;;;;;17.85;98.69;101400.66;5063359;28;20036;-86
2022/08/05 03:02:51;;;;;;;11.80;5.60;;;;;;;17.92;98.16;101400.53;5064556;28;20032;-87
2022/08/05 03:05:17;;;;;;;10.43;6.40;;;;;;;17.82;97.98;101381.97;5064147;28;20112;-88
2022/08/05 03:07:43;;;;;;;11.57;6.20;;;;;;;17.84;98.23;101370.75;5062713;28;21629;-87
2022/08/05 03:10:09;;;;;;;12.43;6.23;;;;;;;17.81;98.55;101354.81;5064276;28;20687;-87
2022/08/05 03:12:37;;;;;;;11.70;5.83;;;;;;;17.80;98.29;101358.63;5063397;28;20043;-89
2022/08/05 03:15:04;;;;;;;11.50;6.00;;;;;;;17.76;98.50;101362.94;5062565;28;21466;-87
2022/08/05 03:17:44;;;;;;;14.37;6.50;;;;;;;17.76;99.03;101360.19;5063073;28;20056;-87
2022/08/05 03:20:10;;;;;;;12.70;6.47;;;;;;;17.73;99.07;101372.50;5067371;28;20054;-86
2022/08/05 03:22:35;;;;;;;11.40;6.60;;;;;;;17.80;98.90;101372.34;5067728;28;20043;-88
2022/08/05 03:25:01;;;;;;;13.27;6.20;;;;;;;17.74;98.90;101387.88;5067147;28;20513;-85
2022/08/05 03:27:27;;;;;;;13.70;7.10;;;;;;;17.72;99.11;101390.03;5067316;28;20099;-84
2022/08/05 03:29:52;;;;;;;11.90;6.60;;;;;;;17.76;99.09;101399.44;5067522;28;20040;-88
2022/08/05 03:32:18;;;;;;;11.57;6.30;;;;;;;17.76;98.70;101390.34;5067285;28;20044;-87
2022/08/05 03:34:45;;;;;;;14.50;7.03;;;;;;;17.66;98.46;101391.00;5067804;28;20041;-87
2022/08/05 03:37:11;;;;;;;14.33;7.20;;;;;;;17.71;99.25;101394.66;5067560;28;20062;-88
2022/08/05 03:39:37;;;;;;;10.97;6.90;;;;;;;17.68;98.33;101403.38;5066029;28;20483;-87
2022/08/05 03:42:03;;;;;;;15.23;7.27;;;;;;;17.63;98.43;101402.47;5066750;28;20045;-88
2022/08/05 03:44:28;;;;;;;13.30;6.73;;;;;;;17.63;98.69;101408.75;5068340;28;20089;-87
2022/08/05 03:46:53;;;;;;;13.90;7.33;;;;;;;17.60;99.46;101408.41;5067107;28;20179;-89
2022/08/05 03:49:19;;;;;;;12.00;7.70;;;;;;;17.62;99.17;101409.84;5065685;28;20049;-88
2022/08/05 03:51:44;;;;;;;14.53;7.47;;;;;;;17.65;98.80;101412.09;5064754;28;20568;-89
2022/08/05 03:54:30;;;;;;;12.80;8.17;;;;;;;17.66;99.16;101402.78;5068288;28;20032;-88
2022/08/05 03:56:57;;;;;;;17.00;7.57;;;;;;;17.77;98.94;101409.28;5066937;28;20028;-88
2022/08/05 03:59:28;;;;;;;16.27;8.33;;;;;;;17.66;99.19;101399.22;5067711;28;20051;-86
2022/08/05 04:02:01;;;;;;;13.87;7.53;;;;;;;17.74;98.69;101390.59;5066794;28;20040;-88
2022/08/05 04:04:29;;;;;;;11.87;7.23;;;;;;;17.75;98.75;101370.34;5065338;28;20067;-88
2022/08/05 04:06:55;;;;;;;15.93;8.10;;;;;;;17.76;98.90;101357.47;5067056;28;20050;-88
2022/08/05 04:09:21;;;;;;;15.27;7.60;;;;;;;17.76;98.76;101368.44;5066095;28;20037;-88
2022/08/05 04:11:47;;;;;;;12.27;7.60;;;;;;;17.75;98.43;101362.13;5066340;28;20055;-88
2022/08/05 04:14:12;;;;;;;12.53;7.00;;;;;;;17.77;98.29;101372.84;5065455;28;20032;-86
2022/08/05 04:16:38;;;;;;;13.37;7.40;;;;;;;17.77;98.25;101370.91;5065237;28;20036;-88
2022/08/05 04:19:04;;;;;;;15.37;7.83;;;;;;;17.70;97.08;101379.28;5066614;28;20492;-87
2022/08/05 04:21:29;;;;;;;12.80;7.30;;;;;;;17.64;97.82;101383.03;5066338;28;20117;-88
2022/08/05 04:23:57;;;;;;;14.33;7.60;;;;;;;17.69;98.38;101388.63;5066782;28;20060;-88
2022/08/05 04:26:23;;;;;;;15.03;7.63;;;;;;;17.63;99.75;101386.84;5066207;28;20028;-88
2022/08/05 04:28:48;;;;;;;15.50;8.27;;;;;;;17.70;98.68;101395.72;5065025;28;20476;-88
2022/08/05 04:31:14;;;;;;;13.80;7.80;;;;;;;17.65;98.85;101390.19;5065052;28;20039;-87
2022/08/05 04:33:39;;;;;;;13.40;7.57;;;;;;;17.64;98.78;101396.72;5071757;28;20123;-88
2022/08/05 04:36:05;;;;;;;15.60;7.90;;;;;;;17.64;98.95;101404.97;5046478;28;20216;-88
2022/08/05 04:38:30;;;;;;;12.80;7.93;;;;;;;17.60;98.87;101408.41;5066321;28;20037;-86
2022/08/05 04:40:56;;;;;;;12.80;7.40;;;;;;;17.62;99.23;101401.63;5066157;28;20178;-86
2022/08/05 04:43:21;;;;;;;15.83;7.80;;;;;;;17.64;99.02;101413.19;5066585;28;20119;-87
2022/08/05 04:45:46;;;;;;;12.53;8.27;;;;;;;17.56;99.46;101402.63;5065051;28;21325;-87
2022/08/05 04:48:13;;;;;;;12.23;7.67;;;;;;;17.53;100.00;101405.84;5066193;28;20040;-89
2022/08/05 04:50:41;;;;;;;12.13;7.93;;;;;;;17.42;100.00;101402.09;5067133;28;20037;-89
2022/08/05 04:53:07;;;;;;;12.00;8.73;;;;;;;17.47;100.00;101412.28;5066085;28;20170;-87
2022/08/05 04:55:33;;;;;;;15.23;8.43;;;;;;;17.42;100.00;101404.81;5066615;28;20032;-88
2022/08/05 04:57:58;;;;;;;16.03;8.00;;;;;;;17.45;100.00;101411.69;5065658;28;20101;-88
2022/08/05 05:00:24;;;;;;;12.80;8.13;;;;;;;17.47;100.00;101415.03;5064603;28;20128;-88
2022/08/05 05:02:49;;;;;;;14.93;8.57;;;;;;;17.53;100.00;101409.41;5065522;28;20075;-88
2022/08/05 05:05:15;;;;;;;15.63;8.00;;;;;;;17.52;100.00;101396.78;5066105;28;20032;-88
2022/08/05 05:07:40;;;;;;;15.93;9.80;;;;;;;17.58;100.00;101405.91;5064243;28;20044;-90
2022/08/05 05:10:36;;;;;;;16.37;9.20;;;;;;;17.61;100.00;101408.19;5066010;28;20047;-88
2022/08/05 05:13:01;;;;;;;17.03;9.33;;;;;;;17.63;100.00;101402.47;5065083;28;20314;-88
2022/08/05 05:15:27;;;;;;;14.30;9.23;;;;;;;17.57;99.93;101395.22;5064041;28;20417;-88
2022/08/05 05:17:52;;;;;;;16.73;9.60;;;;;;;17.66;100.00;101405.53;5066242;28;20037;-90
2022/08/05 05:20:18;;;;;;;13.80;9.13;;;;;;;17.72;99.55;101404.56;5063793;28;20151;-87
2022/08/05 05:22:43;;;;;;;16.23;9.70;;;;;;;17.73;99.65;101402.63;5065004;28;20044;-87
2022/08/05 05:25:08;;;;;;;14.70;9.43;;;;;;;17.79;99.32;101395.31;5066891;28;20035;-88
2022/08/05 05:27:35;;;;;;;15.10;9.53;;;;;;;17.79;98.97;101412.63;5065130;28;20070;-89
2022/08/05 05:30:02;;;;;;;15.87;9.33;;;;;;;17.78;98.64;101419.19;5066617;28;20108;-87
2022/08/05 05:32:27;;;;;;;14.53;9.20;;;;;;;17.80;98.39;101427.16;5063051;28;20553;-88
2022/08/05 05:34:53;;;;;;;16.63;9.20;;;;;;;17.85;99.14;101421.75;5063766;28;20042;-88
2022/08/05 05:37:18;;;;;;;14.70;9.17;;;;;;;17.89;98.14;101429.25;5062575;28;20040;-88
2022/08/05 05:39:44;;;;;;;15.50;9.07;;;;;;;17.97;98.24;101428.03;5064674;28;20349;-86
2022/08/05 05:42:09;;;;;;;13.03;8.70;;;;;;;17.97;97.42;101432.72;5064842;28;20044;-86
2022/08/05 05:44:34;;;;;;;14.30;8.20;;;;;;;17.96;97.14;101434.59;5065415;28;20067;-85
2022/08/05 05:47:00;;;;;;;15.17;7.63;;;;;;;17.97;96.90;101428.03;5064504;28;20035;-86
2022/08/05 05:49:26;;;;;;;14.97;8.63;;;;;;;17.92;97.00;101438.09;5065085;28;20400;-86
2022/08/05 05:51:52;;;;;;;12.73;7.95;;;;;;;17.90;97.54;101432.81;5064524;28;20047;-88
2022/08/05 05:54:17;;;;;;;13.93;7.93;;;;;;;17.78;98.22;101437.53;5062768;28;20132;-88
2022/08/05 05:56:43;;;;;;;13.43;7.40;;;;;;;17.82;97.74;101449.69;5064171;28;20033;-88
2022/08/05 05:59:08;;;;;;;17.47;8.00;;;;;;;17.75;98.12;101454.44;5065194;28;20070;-87
2022/08/05 06:01:38;;;;;;;12.90;7.43;;;;;;;17.77;98.62;101452.31;5062793;28;20075;-88
2022/08/05 06:04:09;;;;;;;17.10;7.83;;;;;;;17.75;99.10;101448.97;5064759;28;20117;-87
2022/08/05 06:06:35;;;;;;;13.93;7.20;;;;;;;17.78;98.50;101459.47;5063929;28;20028;-89
2022/08/05 06:09:02;;;;;;;16.43;7.40;;;;;;;17.76;98.56;101451.50;5064759;28;20039;-87
2022/08/05 06:11:27;;;;;;;11.63;7.00;;;;;;;17.80;98.56;101463.63;5064663;28;20064;-87
2022/08/05 06:13:52;;;;;;;16.20;7.47;;;;;;;17.76;98.38;101462.47;5064450;28;20143;-86
2022/08/05 06:16:18;;;;;;;12.70;7.23;;;;;;;17.80;98.08;101462.78;5064762;28;20082;-89
2022/08/05 06:18:43;;;;;;;16.27;7.93;;;;;;;17.70;98.39;101457.94;5064688;28;20040;-89
2022/08/05 06:21:09;;;;;;;13.23;7.83;;;;;;;17.71;98.50;101459.63;5063327;28;20059;-89
2022/08/05 06:23:34;;;;;;;16.03;8.07;;;;;;;17.76;99.43;101458.88;5064747;28;20123;-88
2022/08/05 06:25:59;;;;;;;13.23;7.37;;;;;;;17.71;98.49;101449.47;5054645;28;20040;-87
2022/08/05 06:28:25;;;;;;;13.63;7.83;;;;;;;17.63;97.86;101451.78;5063264;28;20395;-88
2022/08/05 06:30:50;;;;;;;11.47;6.87;;;;;;;17.68;98.74;101449.16;5062518;28;20040;-88
2022/08/05 06:33:15;;;;;;;13.27;7.77;;;;;;;17.74;98.45;101466.53;5064215;28;20049;-88
2022/08/05 06:35:41;;;;;;;13.93;7.20;;;;;;;17.80;98.33;101479.22;5063877;28;20035;-87
2022/08/05 06:38:06;;;;;;;13.30;7.40;;;;;;;17.76;98.65;101469.84;5061378;28;20071;-87
2022/08/05 06:40:32;;;;;;;17.20;8.07;;;;;;;17.71;99.08;101459.63;5063556;28;20158;-88
2022/08/05 06:42:57;;;;;;;15.10;7.43;;;;;;;17.80;99.10;101465.53;5064564;28;20451;-87
2022/08/05 06:45:22;;;;;;;13.67;6.93;;;;;;;17.87;98.45;101468.97;5062991;28;20120;-89
2022/08/05 06:47:48;;;;;;;14.57;7.63;;;;;;;17.96;98.78;101483.94;5064703;28;20048;-86
2022/08/05 06:50:13;;;;;;;13.63;7.28;;;;;;;17.98;98.46;101487.28;5065991;28;20507;-87
2022/08/05 06:52:38;;;;;;;14.17;7.67;;;;;;;18.14;98.11;101484.81;5064949;28;20045;-88
2022/08/05 06:55:05;;;;;;;17.30;7.53;;;;;;;18.12;97.53;101493.28;5069834;28;20066;-87
2022/08/05 06:57:31;;;;;;;12.70;7.40;;;;;;;18.17;96.83;101489.81;5066957;28;20072;-88
2022/08/05 06:59:56;;;;;;;12.23;7.07;;;;;;;18.28;96.59;101496.28;5066860;28;20198;-86
2022/08/05 07:02:21;;;;;;;12.20;7.10;;;;;;;18.23;95.92;101494.31;5068003;28;20040;-87
2022/08/05 07:04:47;;;;;;;15.07;6.90;;;;;;;18.20;94.81;101495.63;5066106;28;20028;-87
2022/08/05 07:07:12;;;;;;;14.00;7.50;;;;;;;18.34;96.22;101504.38;5066044;28;20040;-89
2022/08/05 07:09:44;;;;;;;11.32;7.25;;;;;;;18.45;95.73;101510.03;5068332;28;20028;-88
2022/08/05 07:16:47;;;;;;;11.00;7.40;;;;;;;18.47;95.56;101503.22;5064243;28;20048;-90
2022/08/05 07:17:38;;;;;;;11.88;7.43;;;;;;;18.68;92.84;101518.09;5062942;28;21108;-86
2022/08/05 07:20:04;;;;;;;13.18;6.07;;;;;;;18.91;91.01;101518.22;5064493;28;20056;-89
2022/08/05 07:22:29;;;;;;;13.93;7.00;;;;;;;18.88;92.08;101522.28;5062195;28;20052;-86
2022/08/05 07:24:59;;;;;;;14.20;6.90;;;;;;;18.93;91.64;101529.75;5061234;28;20044;-85
2022/08/05 07:27:25;;;;;;;11.35;6.07;;;;;;;18.99;90.31;101532.34;5064009;28;20042;-86
2022/08/05 07:29:50;;;;;;;12.68;6.25;;;;;;;18.95;88.92;101517.44;5064148;28;20040;-87
2022/08/05 07:32:16;;;;;;;11.32;5.93;;;;;;;19.25;89.45;101540.13;5063403;28;20063;-87
2022/08/05 07:34:41;;;;;;;12.13;6.05;;;;;;;19.31;87.18;101537.22;5069297;28;20063;-84
2022/08/05 07:37:06;;;;;;;11.73;5.90;;;;;;;19.39;86.30;101535.91;5062796;28;20131;-83
2022/08/05 07:39:33;;;;;;;10.10;5.88;;;;;;;19.30;85.55;101537.47;5064412;28;20135;-87
2022/08/05 07:41:58;;;;;;;10.38;5.63;;;;;;;19.38;85.54;101532.34;5064109;28;20123;-85
2022/08/05 07:44:24;;;;;;;12.57;5.90;;;;;;;19.43;85.74;101537.06;5064510;28;20105;-86
2022/08/05 07:46:49;;;;;;;12.65;5.05;;;;;;;19.55;83.52;101532.28;5066434;28;20093;-84
2022/08/05 07:49:17;;;;;;;10.32;4.53;;;;;;;19.65;81.43;101542.59;5067482;28;20123;-83
2022/08/05 07:51:42;;;;;;;10.70;4.00;;;;;;;19.74;80.56;101548.47;5067468;28;20349;-85
2022/08/05 07:54:08;;;;;;;7.40;4.05;;;;;;;19.55;78.29;101553.44;5066537;28;20383;-85
2022/08/05 07:56:33;;;;;;;7.65;3.05;;;;;;;19.81;77.82;101559.28;5067114;28;20032;-85
2022/08/05 07:58:58;;;;;;;8.35;3.20;;;;;;;19.63;77.01;101546.69;5066716;28;20068;-86
2022/08/05 08:01:26;;;;;;;7.65;3.30;;;;;;;19.81;78.67;101556.53;5065702;28;20059;-85
2022/08/05 08:03:51;;;;;;;7.88;3.50;;;;;;;20.03;78.11;101543.59;5067677;28;20099;-84
2022/08/05 08:06:17;;;;;;;7.00;3.10;;;;;;;20.48;78.31;101563.59;5067504;28;20483;-83
2022/08/05 08:08:42;;;;;;;6.13;3.00;;;;;;;20.71;73.98;101561.59;5065401;28;20055;-85
2022/08/05 08:11:08;;;;;;;5.50;2.63;;;;;;;20.63;71.79;101562.03;5067835;28;20039;-84
2022/08/05 08:13:33;;;;;;;6.75;2.70;;;;;;;20.47;71.88;101567.44;5067885;28;20044;-85
2022/08/05 08:15:58;;;;;;;5.28;2.78;;;;;;;20.37;71.75;101576.41;5067802;28;20552;-85
2022/08/05 08:18:23;;;;;;;4.20;2.50;;;;;;;20.46;70.43;101573.19;5066667;28;20067;-86
2022/08/05 08:20:50;;;;;;;4.97;2.40;;;;;;;20.90;71.32;101570.28;5067358;28;20128;-88
2022/08/05 08:23:17;;;;;;;6.75;3.08;;;;;;;20.99;71.63;101582.47;5066278;28;20591;-85
2022/08/05 08:25:42;;;;;;;10.68;2.88;;;;;;;21.06;70.11;101580.31;5067383;28;20123;-83
2022/08/05 08:28:08;;;;;;;4.18;2.38;;;;;;;21.20;70.20;101596.38;5067016;28;21367;-84
2022/08/05 08:30:34;;;;;;;5.57;2.50;;;;;;;21.23;69.51;101593.13;5064219;28;20067;-82
2022/08/05 08:33:06;;;;;;;4.88;2.70;;;;;;;21.06;70.20;101598.78;5063821;28;20074;-86
2022/08/05 08:35:32;;;;;;;7.95;2.92;;;;;;;21.00;70.96;101597.91;5066993;28;20051;-89
2022/08/05 08:37:57;;;;;;;5.57;2.55;;;;;;;21.04;70.17;101601.81;5066151;28;20562;-85
2022/08/05 08:40:23;;;;;;;4.85;2.40;;;;;;;21.16;69.68;101598.00;5063088;28;20039;-87
2022/08/05 08:42:51;;;;;;;6.03;2.60;;;;;;;21.23;69.38;101604.16;5062177;28;20039;-86
2022/08/05 08:45:20;;;;;;;3.53;2.00;;;;;;;21.33;68.94;101595.94;5061400;28;20093;-84
2022/08/05 08:47:46;;;;;;;6.30;2.47;;;;;;;21.26;68.88;101603.59;5061887;28;20483;-85
2022/08/05 08:50:13;;;;;;;6.90;2.60;;;;;;;21.66;68.87;101612.41;5062592;28;20032;-85
2022/08/05 08:52:42;;;;;;;6.80;2.53;;;;;;;21.60;68.70;101614.31;5060388;28;21176;-85
2022/08/05 08:55:08;;;;;;;4.22;2.80;;;;;;;21.77;68.18;101614.09;5062443;28;20040;-88
2022/08/05 08:57:33;;;;;;;6.00;2.55;;;;;;;22.18;68.42;101627.22;5062196;28;20070;-85
2022/08/05 09:00:00;;;;;;;6.20;2.72;;;;;;;22.31;66.56;101617.63;5062033;28;20115;-88
2022/08/05 09:02:26;;;;;;;8.02;2.72;;;;;;;22.50;65.98;101629.00;5062054;28;20032;-86
2022/08/05 09:04:52;;;;;;;5.43;2.47;;;;;;;22.76;65.08;101618.81;5062089;28;20068;-82
2022/08/05 09:07:17;;;;;;;4.57;2.28;;;;;;;22.58;65.75;101634.00;5061964;28;20067;-84
2022/08/05 09:09:43;;;;;;;7.32;2.80;;;;;;;22.74;64.37;101632.91;5062163;28;20085;-86
2022/08/05 09:12:09;;;;;;;4.80;2.63;;;;;;;22.66;64.32;101638.97;5062325;28;20376;-85
2022/08/05 09:14:50;;;;;;;7.40;2.78;;;;;;;22.86;66.32;101634.56;5061719;28;20430;-84
2022/08/05 09:17:15;;;;;;;5.38;2.70;;;;;;;22.62;63.00;101650.84;5061740;28;20040;-82
2022/08/05 09:19:41;;;;;;;5.97;2.50;;;;;;;22.51;63.03;101655.53;5062032;28;20545;-82
2022/08/05 09:22:07;;;;;;;3.38;2.50;;;;;;;22.17;63.64;101653.19;5060652;28;20117;-83
2022/08/05 09:24:35;;;;;;;8.93;3.03;;;;;;;22.00;64.99;101651.44;5061213;28;20044;-86
2022/08/05 09:27:07;;;;;;;6.47;2.70;;;;;;;21.80;65.31;101659.63;5061055;28;20119;-85
2022/08/05 09:29:44;;;;;;;5.32;2.60;;;;;;;21.75;66.55;101666.78;5061984;28;20028;-86
2022/08/05 09:32:10;;;;;;;4.20;2.33;;;;;;;21.27;66.29;101665.06;5062188;28;20032;-86
2022/08/05 09:34:46;;;;;;;5.68;2.40;;;;;;;21.41;68.51;101671.78;5059594;28;20314;-84
2022/08/05 09:37:20;;;;;;;2.83;2.20;;;;;;;21.57;67.27;101670.00;5062736;28;20371;-87
2022/08/05 09:39:45;;;;;;;4.28;2.35;;;;;;;21.48;66.39;101668.81;5061783;28;20040;-83
2022/08/05 09:42:19;;;;;;;4.47;2.38;;;;;;;21.68;67.89;101660.69;5061517;28;20087;-84
2022/08/05 09:44:47;;;;;;;5.25;2.20;;;;;;;22.05;65.28;101675.50;5061322;28;20376;-87
2022/08/05 09:47:15;;;;;;;4.70;2.40;;;;;;;22.10;67.05;101670.00;5062789;28;20040;-85
2022/08/05 09:49:46;;;;;;;4.03;2.55;;;;;;;22.50;64.68;101667.69;5056164;28;20424;-85
2022/08/05 09:52:28;;;;;;;8.07;2.75;;;;;;;22.79;64.71;101681.78;5043553;28;20055;-83
2022/08/05 09:55:08;;;;;;;4.63;2.50;;;;;;;23.35;63.79;101669.97;5060663;28;20037;-86
2022/08/05 09:57:42;;;;;;;3.97;2.60;;;;;;;23.39;61.59;101670.22;5061887;28;20032;-85
2022/08/05 10:00:16;;;;;;;3.75;2.40;;;;;;;23.88;62.11;101671.50;5062316;28;20032;-86
2022/08/05 10:02:44;;;;;;;3.30;2.50;;;;;;;24.16;59.25;101683.06;5076441;28;20036;-83
2022/08/05 10:05:14;;;;;;;4.40;2.40;;;;;;;23.92;57.29;101678.16;5062009;28;20039;-84
2022/08/05 10:07:49;;;;;;;3.22;2.50;;;;;;;23.81;58.95;101677.31;5061625;28;20094;-85
2022/08/05 10:10:16;;;;;;;2.95;1.80;;;;;;;23.69;57.27;101688.72;5061279;28;20036;-86
2022/08/05 10:12:54;;;;;;;4.80;1.70;;;;;;;23.60;57.85;101682.09;5061352;28;20043;-85
2022/08/05 10:15:26;;;;;;;4.43;1.55;;;;;;;23.18;54.29;101683.25;5062233;28;20076;-84
2022/08/05 10:18:05;;;;;;;2.72;1.13;;;;;;;23.28;54.70;101683.22;5061105;28;20032;-87
2022/08/05 10:20:32;;;;;;;2.58;1.40;;;;;;;22.97;51.85;101693.44;5061135;28;20743;-85
2022/08/05 10:22:59;;;;;;;1.95;1.40;;;;;;;23.16;53.28;101674.38;5060904;28;20055;-86
2022/08/05 10:25:24;;;;;;;2.83;1.23;;;;;;;23.08;51.27;101681.28;5061559;28;20537;-84
2022/08/05 10:27:52;;;;;;;1.88;1.13;;;;;;;23.07;50.99;101702.56;5061521;28;20135;-84
2022/08/05 10:30:18;;;;;;;5.95;1.40;;;;;;;22.98;52.63;101700.63;5065379;28;20033;-87
2022/08/05 10:32:45;;;;;;;1.67;0.93;;;;;;;23.05;52.20;101703.94;5065298;28;20039;-84
2022/08/05 10:35:11;;;;;;;3.72;1.10;;;;;;;22.96;49.18;101702.84;5065384;28;20055;-84
2022/08/05 10:37:37;;;;;;;4.45;1.10;;;;;;;22.76;48.89;101702.53;5069655;28;20032;-84
2022/08/05 10:40:06;;;;;;;1.92;1.13;;;;;;;22.81;49.24;101710.00;5068384;28;20098;-84
2022/08/05 10:42:37;;;;;;;2.33;1.02;;;;;;;22.61;49.62;101705.25;5069233;28;20553;-87
2022/08/05 10:45:06;;;;;;;1.67;0.93;;;;;;;22.48;49.16;101706.59;5065954;28;20036;-86
2022/08/05 10:47:35;;;;;;;3.00;0.90;;;;;;;22.52;51.00;101709.63;5073945;28;20047;-84
2022/08/05 10:50:15;;;;;;;2.00;0.88;;;;;;;22.56;49.66;101716.28;5067138;28;20073;-83
2022/08/05 10:52:42;;;;;;;1.33;1.00;;;;;;;22.64;49.37;101718.50;5068642;28;20548;-84
2022/08/05 10:55:10;;;;;;;1.85;0.90;;;;;;;22.86;50.12;101718.31;5068038;28;20387;-85
2022/08/05 10:57:36;;;;;;;2.70;0.70;;;;;;;22.93;49.01;101723.56;5067993;28;20075;-84
2022/08/05 11:00:11;;;;;;;1.20;0.82;;;;;;;23.10;50.33;101732.44;5069065;28;20071;-84
2022/08/05 11:02:37;;;;;;;2.50;1.13;;;;;;;23.27;49.36;101725.81;5067832;28;20495;-83
2022/08/05 11:05:09;;;;;;;1.88;1.10;;;;;;;23.23;46.50;101738.53;5067876;28;20392;-81
2022/08/05 11:07:55;;;;;;;2.10;0.80;;;;;;;23.47;47.92;101729.69;5068023;28;20033;-85
2022/08/05 11:10:22;;;;;;;3.50;1.00;;;;;;;23.67;47.35;101728.84;5067858;28;20295;-84
2022/08/05 11:12:48;;;;;;;2.63;0.65;;;;;;;23.91;45.78;101729.09;5068742;28;20494;-85
2022/08/05 11:15:18;;;;;;;1.65;1.17;;;;;;;23.94;45.97;101737.66;5068223;28;20672;-84
2022/08/05 11:17:48;;;;;;;1.88;0.80;;;;;;;24.04;44.96;101733.19;5068507;28;20032;-82
2022/08/05 11:20:37;;;;;;;2.00;1.00;;;;;;;23.81;44.29;101740.97;5067697;28;20311;-80
2022/08/05 11:23:27;;;;;;;3.17;1.02;;;;;;;23.94;44.05;101747.91;5068612;28;20727;-83
2022/08/05 11:26:15;;;;;;;1.67;0.90;;;;;;;23.62;43.45;101746.25;5068834;28;20033;-83